Time;durP1;ratioP1;P1;durP2;ratioP2;P2;SDS_P1;SDS_P2;PMS_P1;PMS_P2;Temp;Humidity;BMP_temperature;BMP_pressure;BME280_temperature;BME280_humidity;BME280_pressure;Samples;Min_cycle;Max_cycle;Signal;HPM_P1;HPM_P2
2021/01/30 00:00:19;;;;;;;7.43;3.10;;;;;;;7.23;100.00;99083.56;20957282;28;20139;-74
2021/01/30 00:10:22;;;;;;;4.97;1.67;;;;;;;7.27;97.81;99072.88;20965645;28;20044;-74
2021/01/30 00:20:29;;;;;;;10.85;5.00;;;;;;;7.27;97.05;99074.63;20931088;28;20466;-73
2021/01/30 00:30:32;;;;;;;6.72;2.70;;;;;;;7.18;99.45;99075.22;20933003;28;20080;-74
2021/01/30 00:40:34;;;;;;;17.85;8.52;;;;;;;7.19;99.28;99082.09;20934713;28;20036;-74
2021/01/30 00:50:36;;;;;;;12.10;5.13;;;;;;;7.17;99.54;99070.94;20922924;28;20037;-74
2021/01/30 01:00:37;;;;;;;10.63;3.17;;;;;;;7.23;98.23;99089.59;20937986;28;20522;-74
2021/01/30 01:10:38;;;;;;;10.65;2.60;;;;;;;7.24;98.62;99090.44;20933535;28;20040;-74
2021/01/30 01:20:39;;;;;;;8.45;2.10;;;;;;;7.19;100.00;99084.69;20946622;28;20048;-74
2021/01/30 01:30:40;;;;;;;5.07;1.60;;;;;;;7.14;100.00;99095.38;20947348;28;20053;-74
2021/01/30 01:40:41;;;;;;;6.30;1.70;;;;;;;7.10;100.00;99077.47;20936194;28;20098;-73
2021/01/30 01:50:47;;;;;;;8.27;1.92;;;;;;;7.20;100.00;99073.34;20911506;28;20045;-73
2021/01/30 02:00:51;;;;;;;10.68;2.75;;;;;;;7.07;100.00;99065.47;20952323;28;20097;-74
2021/01/30 02:10:52;;;;;;;4.20;1.15;;;;;;;7.03;100.00;99050.97;20941939;28;20524;-74
2021/01/30 02:21:27;;;;;;;5.65;2.60;;;;;;;6.97;99.98;99021.88;20940316;28;20459;-73
2021/01/30 02:31:42;;;;;;;4.57;1.00;;;;;;;6.94;99.98;99019.50;20919369;28;20083;-73
2021/01/30 02:41:51;;;;;;;6.65;1.50;;;;;;;6.93;99.22;99002.22;20939241;28;20059;-73
2021/01/30 02:52:12;;;;;;;5.95;1.20;;;;;;;7.02;98.37;98989.47;20915730;28;20448;-73
2021/01/30 03:02:14;;;;;;;8.68;1.40;;;;;;;6.84;100.00;98996.66;20928046;28;20044;-74
2021/01/30 03:12:30;;;;;;;5.18;1.10;;;;;;;6.86;100.00;98999.13;20943707;28;20075;-74
2021/01/30 03:22:33;;;;;;;5.63;0.98;;;;;;;6.77;100.00;99002.31;20933103;28;20075;-73
2021/01/30 03:32:35;;;;;;;10.20;1.23;;;;;;;6.69;100.00;99000.19;20937600;28;20507;-71
2021/01/30 03:42:37;;;;;;;8.52;1.45;;;;;;;6.58;100.00;99005.19;20950036;28;20098;-71
2021/01/30 03:52:38;;;;;;;7.60;1.50;;;;;;;6.61;100.00;98992.00;20926540;28;20454;-70
2021/01/30 04:02:40;;;;;;;8.68;1.45;;;;;;;6.56;100.00;98975.84;20945313;28;20052;-70
2021/01/30 04:12:42;;;;;;;7.35;1.40;;;;;;;6.49;100.00;98963.34;20952175;28;20446;-70
2021/01/30 04:22:44;;;;;;;9.50;1.80;;;;;;;6.44;100.00;98951.47;20916927;28;20040;-73
2021/01/30 04:32:45;;;;;;;12.68;2.15;;;;;;;6.62;100.00;98956.44;20930864;28;20091;-73
2021/01/30 04:42:54;;;;;;;14.57;2.40;;;;;;;6.58;100.00;98955.81;20924662;28;20044;-73
2021/01/30 04:53:38;;;;;;;13.40;2.72;;;;;;;6.56;100.00;98952.44;20928185;28;20052;-75
2021/01/30 05:03:59;;;;;;;16.55;2.28;;;;;;;6.63;100.00;98943.38;20929086;28;20041;-74
2021/01/30 05:14:10;;;;;;;22.42;2.40;;;;;;;6.48;100.00;98933.06;20945795;28;20041;-74
2021/01/30 05:24:14;;;;;;;22.48;2.88;;;;;;;6.43;100.00;98930.75;20941531;28;20091;-74
2021/01/30 05:34:26;;;;;;;21.13;3.15;;;;;;;6.30;100.00;98920.25;20939503;28;20112;-75
2021/01/30 05:44:39;;;;;;;23.20;2.75;;;;;;;6.43;100.00;98904.75;20938181;28;20045;-74
2021/01/30 05:54:40;;;;;;;23.65;3.38;;;;;;;6.39;100.00;98898.09;20911349;28;20045;-74
2021/01/30 06:04:41;;;;;;;27.52;3.88;;;;;;;6.43;100.00;98879.63;20916027;28;20036;-72
2021/01/30 06:14:43;;;;;;;21.77;3.65;;;;;;;6.41;100.00;98876.25;20920260;28;20048;-74
2021/01/30 06:24:46;;;;;;;15.88;3.17;;;;;;;6.27;100.00;98876.28;20933751;28;20385;-72
2021/01/30 06:34:52;;;;;;;16.63;2.97;;;;;;;6.31;100.00;98866.53;20923122;28;20129;-73
2021/01/30 06:45:07;;;;;;;22.58;3.40;;;;;;;6.29;100.00;98855.41;20939281;28;20049;-73
2021/01/30 06:55:13;;;;;;;16.90;3.47;;;;;;;6.32;100.00;98857.81;20911022;28;20049;-74
2021/01/30 07:05:44;;;;;;;16.02;3.08;;;;;;;6.34;100.00;98855.97;20918247;28;20504;-73
2021/01/30 07:16:13;;;;;;;13.23;3.25;;;;;;;6.42;100.00;98835.53;20940481;28;20511;-74
2021/01/30 07:26:22;;;;;;;13.18;2.30;;;;;;;6.43;100.00;98829.41;20937905;28;20550;-75
2021/01/30 07:36:40;;;;;;;13.85;2.65;;;;;;;6.61;98.32;98825.63;20920127;28;20049;-74
2021/01/30 07:46:46;;;;;;;16.48;4.13;;;;;;;6.70;98.06;98819.03;20935070;28;20041;-76
2021/01/30 07:57:12;;;;;;;18.45;3.20;;;;;;;6.71;98.83;98795.50;20918872;28;20397;-75
2021/01/30 08:07:22;;;;;;;15.38;4.18;;;;;;;6.83;96.66;98797.34;20917349;28;20041;-75
2021/01/30 08:17:36;;;;;;;11.70;2.60;;;;;;;6.85;96.47;98776.44;20934422;28;20057;-75
2021/01/30 08:27:41;;;;;;;13.27;2.90;;;;;;;6.93;96.22;98773.31;20941559;28;20473;-74
2021/01/30 08:37:42;;;;;;;15.27;2.92;;;;;;;7.08;95.33;98767.13;20946358;28;20481;-75
2021/01/30 08:47:51;;;;;;;15.70;2.90;;;;;;;7.21;94.20;98771.41;20947033;28;20484;-75
2021/01/30 08:57:53;;;;;;;17.45;5.57;;;;;;;7.16;94.36;98770.06;20931671;28;20504;-74
2021/01/30 09:08:18;;;;;;;10.63;3.17;;;;;;;7.18;93.13;98768.19;20936439;28;20412;-74
2021/01/30 09:18:22;;;;;;;20.00;5.10;;;;;;;7.42;93.84;98773.50;20932423;28;20045;-74
2021/01/30 09:28:29;;;;;;;16.92;3.72;;;;;;;7.54;93.59;98770.91;20935655;28;20049;-73
2021/01/30 09:38:37;;;;;;;18.75;3.90;;;;;;;7.61;94.54;98761.75;20955114;28;20099;-73
2021/01/30 09:48:41;;;;;;;13.45;2.75;;;;;;;7.58;93.93;98751.53;20976740;28;20053;-73
2021/01/30 09:58:45;;;;;;;13.52;2.50;;;;;;;7.54;95.08;98752.69;20945567;28;20049;-73
2021/01/30 10:08:46;;;;;;;11.30;3.37;;;;;;;7.47;97.18;98751.44;20954291;28;20048;-73
2021/01/30 10:18:55;;;;;;;12.77;2.28;;;;;;;7.49;97.61;98751.34;20954370;28;20306;-73
2021/01/30 10:29:03;;;;;;;16.98;3.20;;;;;;;7.62;98.36;98739.97;20952367;28;20463;-73
2021/01/30 10:39:24;;;;;;;15.73;3.38;;;;;;;7.65;100.00;98731.13;20964006;28;20049;-72
2021/01/30 10:49:36;;;;;;;12.73;3.67;;;;;;;7.85;100.00;98722.78;20940372;28;20102;-74
2021/01/30 10:59:45;;;;;;;14.55;3.60;;;;;;;7.78;100.00;98715.47;20959368;28;20056;-75
2021/01/30 11:09:53;;;;;;;16.88;4.93;;;;;;;7.94;100.00;98701.28;20964878;28;20040;-75
2021/01/30 11:19:54;;;;;;;15.02;3.50;;;;;;;7.94;100.00;98690.84;20959351;28;20044;-71
2021/01/30 11:29:58;;;;;;;13.63;2.60;;;;;;;7.97;100.00;98663.78;20952429;28;20041;-71
2021/01/30 11:40:08;;;;;;;12.85;2.58;;;;;;;8.05;100.00;98636.22;20940323;28;20465;-72
2021/01/30 11:50:10;;;;;;;15.38;4.97;;;;;;;8.13;100.00;98614.81;20960686;28;20499;-70
2021/01/30 12:00:13;;;;;;;14.77;4.10;;;;;;;8.30;100.00;98611.84;20983275;28;20389;-72
2021/01/30 12:10:14;;;;;;;12.73;3.55;;;;;;;8.23;100.00;98581.91;20995322;28;20053;-72
2021/01/30 12:20:20;;;;;;;11.80;3.42;;;;;;;8.34;100.00;98568.97;20977399;28;20558;-73
2021/01/30 12:30:24;;;;;;;17.17;3.85;;;;;;;8.13;100.00;98549.66;20956335;28;20098;-72
2021/01/30 12:40:29;;;;;;;11.55;3.10;;;;;;;8.03;100.00;98541.69;20957750;28;20057;-70
2021/01/30 12:50:31;;;;;;;12.88;3.70;;;;;;;8.02;100.00;98547.03;20946746;28;20098;-69
2021/01/30 13:00:33;;;;;;;17.92;5.78;;;;;;;7.94;100.00;98534.56;20950665;28;20059;-69
2021/01/30 13:10:34;;;;;;;11.63;3.95;;;;;;;7.94;100.00;98512.88;20954148;28;20056;-70
2021/01/30 13:20:37;;;;;;;16.15;4.97;;;;;;;7.86;100.00;98499.59;20969639;28;20048;-71
2021/01/30 13:30:39;;;;;;;18.35;3.63;;;;;;;7.69;100.00;98488.66;20947771;28;20082;-71
2021/01/30 13:40:41;;;;;;;17.15;4.07;;;;;;;7.55;100.00;98491.44;20946446;28;20114;-72
2021/01/30 13:50:43;;;;;;;15.48;5.20;;;;;;;7.45;100.00;98482.63;20962768;28;20534;-72
2021/01/30 14:00:44;;;;;;;18.17;6.20;;;;;;;7.39;100.00;98475.25;20956547;28;20056;-72
2021/01/30 14:10:45;;;;;;;23.05;7.72;;;;;;;7.24;100.00;98473.75;20951550;28;20052;-72
2021/01/30 14:20:46;;;;;;;20.15;10.15;;;;;;;7.06;100.00;98456.84;20944111;28;20045;-71
2021/01/30 14:30:50;;;;;;;14.52;5.60;;;;;;;6.97;100.00;98452.28;20932539;28;20099;-73
2021/01/30 14:40:51;;;;;;;20.60;6.75;;;;;;;6.90;100.00;98431.09;20940609;28;20569;-73
2021/01/30 14:50:52;;;;;;;18.02;6.63;;;;;;;6.83;100.00;98425.50;20939620;28;20407;-73
2021/01/30 15:00:53;;;;;;;20.92;10.07;;;;;;;6.74;100.00;98412.31;20943990;28;20044;-73
2021/01/30 15:10:54;;;;;;;22.80;8.10;;;;;;;6.63;100.00;98417.44;20946027;28;20470;-73
2021/01/30 15:20:56;;;;;;;14.02;3.92;;;;;;;6.41;100.00;98394.69;20946884;28;20056;-73
2021/01/30 15:30:57;;;;;;;10.23;5.80;;;;;;;5.67;100.00;98421.34;20931570;28;20515;-72
2021/01/30 15:41:01;;;;;;;12.45;7.60;;;;;;;5.15;100.00;98405.75;20961228;28;20132;-73
2021/01/30 15:51:02;;;;;;;12.65;8.13;;;;;;;4.70;100.00;98392.19;20936169;28;20456;-73
2021/01/30 16:01:04;;;;;;;17.92;8.80;;;;;;;4.40;100.00;98401.84;20938426;28;20049;-74
2021/01/30 16:11:05;;;;;;;16.45;10.63;;;;;;;4.26;100.00;98394.94;20951527;28;20082;-75
2021/01/30 16:21:06;;;;;;;18.75;12.00;;;;;;;3.97;100.00;98402.75;20934997;28;20053;-73
2021/01/30 16:31:07;;;;;;;21.92;12.65;;;;;;;3.80;100.00;98408.94;20953421;28;20056;-73
2021/01/30 16:41:09;;;;;;;26.95;16.70;;;;;;;3.61;100.00;98404.00;20972530;28;20087;-73
2021/01/30 16:51:10;;;;;;;28.48;17.00;;;;;;;3.50;100.00;98410.72;20971312;28;20080;-72
2021/01/30 17:01:12;;;;;;;30.33;16.65;;;;;;;3.50;100.00;98408.16;20950836;28;20045;-73
2021/01/30 17:11:13;;;;;;;32.53;19.48;;;;;;;3.62;100.00;98416.00;20960806;28;20045;-73
2021/01/30 17:21:15;;;;;;;14.02;8.45;;;;;;;3.30;100.00;98420.44;20941828;28;20045;-73
2021/01/30 17:31:16;;;;;;;14.57;8.73;;;;;;;3.29;100.00;98423.13;20970009;28;20053;-73
2021/01/30 17:41:18;;;;;;;14.93;8.38;;;;;;;3.23;100.00;98428.63;20961936;28;20534;-73
2021/01/30 17:51:20;;;;;;;12.27;6.70;;;;;;;2.84;100.00;98447.19;20957218;28;20052;-73
2021/01/30 18:01:21;;;;;;;11.55;7.65;;;;;;;2.88;100.00;98448.66;20953416;28;20088;-73
2021/01/30 18:11:23;;;;;;;11.45;7.20;;;;;;;2.66;100.00;98463.66;20948247;28;20052;-73
2021/01/30 18:21:24;;;;;;;12.80;8.00;;;;;;;2.71;100.00;98477.16;20949564;28;20059;-73
2021/01/30 18:31:26;;;;;;;18.98;10.70;;;;;;;2.55;100.00;98475.38;20954264;28;20056;-74
2021/01/30 18:41:27;;;;;;;18.00;12.30;;;;;;;2.51;100.00;98470.47;20961152;28;20116;-74
2021/01/30 18:51:28;;;;;;;13.32;7.97;;;;;;;2.28;100.00;98488.91;20985964;28;20048;-73
2021/01/30 19:01:30;;;;;;;15.18;10.02;;;;;;;2.26;100.00;98485.56;20957992;28;20694;-73
2021/01/30 19:11:33;;;;;;;15.15;9.90;;;;;;;2.01;100.00;98510.03;20955606;28;20080;-72
2021/01/30 19:21:34;;;;;;;16.70;10.15;;;;;;;1.99;100.00;98503.25;20984748;28;20041;-73
2021/01/30 19:31:35;;;;;;;17.13;10.82;;;;;;;1.79;100.00;98516.31;20976217;28;20048;-73
2021/01/30 19:41:36;;;;;;;14.20;9.60;;;;;;;1.65;100.00;98547.94;20974107;28;20132;-73
2021/01/30 19:51:39;;;;;;;14.85;9.15;;;;;;;1.62;100.00;98551.50;20922319;28;20511;-73
2021/01/30 20:01:40;;;;;;;17.60;10.77;;;;;;;1.61;100.00;98554.16;20945942;28;20045;-73
2021/01/30 20:11:41;;;;;;;16.65;10.02;;;;;;;1.47;100.00;98567.69;20931700;28;20048;-73
2021/01/30 20:21:42;;;;;;;18.63;11.27;;;;;;;1.39;100.00;98563.78;20948074;28;20078;-74
2021/01/30 20:31:43;;;;;;;18.85;11.55;;;;;;;1.29;100.00;98576.25;20968081;28;20049;-73
2021/01/30 20:41:44;;;;;;;21.33;12.23;;;;;;;1.21;100.00;98573.22;20963460;28;20107;-73
2021/01/30 20:51:45;;;;;;;22.20;12.23;;;;;;;1.15;100.00;98584.63;20952335;28;20060;-74
2021/01/30 21:01:47;;;;;;;19.92;11.48;;;;;;;1.07;100.00;98599.56;20941531;28;20134;-72
2021/01/30 21:11:49;;;;;;;24.98;12.55;;;;;;;1.07;100.00;98609.03;20959132;28;20048;-73
2021/01/30 21:21:50;;;;;;;27.17;15.23;;;;;;;1.00;100.00;98608.50;20932713;28;20094;-73
2021/01/30 21:31:51;;;;;;;21.17;11.75;;;;;;;0.96;100.00;98629.31;20962127;28;20071;-73
2021/01/30 21:41:52;;;;;;;19.75;11.32;;;;;;;0.85;100.00;98632.34;20971709;28;20045;-72
2021/01/30 21:51:52;;;;;;;19.52;10.75;;;;;;;0.88;100.00;98623.63;20955523;28;20412;-73
2021/01/30 22:01:57;;;;;;;20.40;11.70;;;;;;;0.90;100.00;98637.31;20944559;28;20404;-73
2021/01/30 22:11:58;;;;;;;23.20;12.17;;;;;;;0.75;100.00;98654.25;20959002;28;20493;-73
2021/01/30 22:21:59;;;;;;;21.83;11.60;;;;;;;0.81;100.00;98659.94;20940170;28;20403;-73
2021/01/30 22:32:01;;;;;;;27.77;15.18;;;;;;;0.76;100.00;98667.03;20952931;28;20072;-73
2021/01/30 22:42:02;;;;;;;23.05;12.45;;;;;;;0.62;100.00;98669.38;20953951;28;20098;-73
2021/01/30 22:52:06;;;;;;;25.55;14.25;;;;;;;0.65;100.00;98673.56;20953048;28;20076;-75
2021/01/30 23:02:27;;;;;;;27.42;13.77;;;;;;;0.68;100.00;98683.72;20953356;28;20063;-75
2021/01/30 23:12:28;;;;;;;26.13;13.05;;;;;;;0.74;100.00;98676.59;20944125;28;20601;-73
2021/01/30 23:22:29;;;;;;;27.55;14.57;;;;;;;0.83;100.00;98694.22;20929339;28;20049;-73
2021/01/30 23:32:30;;;;;;;26.95;13.98;;;;;;;0.77;100.00;98699.63;20951736;28;20052;-73
2021/01/30 23:42:31;;;;;;;32.65;15.65;;;;;;;0.73;100.00;98708.38;20949151;28;20048;-73
2021/01/30 23:52:32;;;;;;;25.70;13.68;;;;;;;0.63;100.00;98706.25;20952556;28;20044;-72
